createdAt,value
2022-10-01T00:00:54.295Z,12.73
2022-10-01T00:03:23.372Z,12.76
2022-10-01T00:06:06.576Z,12.72
2022-10-01T00:08:34.128Z,12.73
2022-10-01T00:11:01.676Z,12.74
2022-10-01T00:13:36.140Z,12.73
2022-10-01T00:16:09.183Z,12.71
2022-10-01T00:18:40.644Z,12.73
2022-10-01T00:21:13.687Z,12.67
2022-10-01T00:23:42.460Z,12.74
2022-10-01T00:26:18.938Z,12.68
2022-10-01T00:28:47.843Z,12.65
2022-10-01T00:31:15.962Z,12.65
2022-10-01T00:33:43.088Z,12.68
2022-10-01T00:36:11.048Z,12.64
2022-10-01T00:38:40.288Z,12.63
2022-10-01T00:41:08.157Z,12.58
2022-10-01T00:43:40.186Z,12.66
2022-10-01T00:46:21.682Z,12.66
2022-10-01T00:49:01.250Z,12.69
2022-10-01T00:51:35.307Z,12.66
2022-10-01T00:54:08.536Z,12.66
2022-10-01T00:56:36.200Z,12.66
2022-10-01T00:59:03.861Z,12.69
2022-10-01T01:01:31.253Z,12.69
2022-10-01T01:03:58.613Z,12.68
2022-10-01T01:06:25.550Z,12.69
2022-10-01T01:08:55.295Z,12.66
2022-10-01T01:11:48.291Z,12.69
2022-10-01T01:14:15.052Z,12.64
2022-10-01T01:17:10.877Z,12.67
2022-10-01T01:19:50.576Z,12.63
2022-10-01T01:22:22.986Z,12.59
2022-10-01T01:25:01.379Z,12.60
2022-10-01T01:27:31.431Z,12.63
2022-10-01T01:30:08.677Z,12.63
2022-10-01T01:33:04.634Z,12.59
2022-10-01T01:35:38.145Z,12.60
2022-10-01T01:38:10.698Z,12.64
2022-10-01T01:40:41.051Z,12.64
2022-10-01T01:43:14.082Z,12.64
2022-10-01T01:45:42.291Z,12.63
2022-10-01T01:48:13.249Z,12.61
2022-10-01T01:50:56.954Z,12.66
2022-10-01T01:53:24.641Z,12.71
2022-10-01T01:55:53.220Z,12.73
2022-10-01T01:58:20.679Z,12.77
2022-10-01T02:00:54.487Z,12.76
2022-10-01T02:03:25.868Z,12.82
2022-10-01T02:06:17.078Z,12.83
2022-10-01T02:09:03.559Z,12.84
2022-10-01T02:11:38.153Z,12.82
2022-10-01T02:14:25.871Z,12.81
2022-10-01T02:17:04.938Z,12.78
2022-10-01T02:19:41.222Z,12.78
2022-10-01T02:22:22.807Z,12.76
2022-10-01T02:24:57.694Z,12.82
2022-10-01T02:27:30.140Z,12.84
2022-10-01T02:30:01.876Z,12.84
2022-10-01T02:32:31.526Z,12.83
2022-10-01T02:35:01.181Z,12.84
2022-10-01T02:37:28.770Z,12.80
2022-10-01T02:39:57.888Z,12.83
2022-10-01T02:42:28.439Z,12.82
2022-10-01T02:45:02.459Z,12.78
2022-10-01T02:48:00.951Z,12.81
2022-10-01T02:50:50.654Z,12.79
2022-10-01T02:53:31.757Z,12.77
2022-10-01T02:56:01.083Z,12.77
2022-10-01T02:58:27.846Z,12.73
2022-10-01T03:00:54.773Z,12.78
2022-10-01T03:03:21.502Z,12.78
2022-10-01T03:05:48.369Z,12.76
2022-10-01T03:08:15.074Z,12.75
2022-10-01T03:10:46.029Z,12.78
2022-10-01T03:13:13.805Z,12.78
2022-10-01T03:15:45.703Z,12.78
2022-10-01T03:18:12.442Z,12.81
2022-10-01T03:20:39.220Z,12.78
2022-10-01T03:23:05.965Z,12.79
2022-10-01T03:25:32.727Z,12.78
2022-10-01T03:27:59.686Z,12.78
2022-10-01T03:30:26.993Z,12.69
2022-10-01T03:32:53.737Z,12.75
2022-10-01T03:35:20.506Z,12.72
2022-10-01T03:37:47.759Z,12.72
2022-10-01T03:40:14.688Z,12.74
2022-10-01T03:42:41.409Z,12.75
2022-10-01T03:45:08.612Z,12.73
2022-10-01T03:47:35.359Z,12.73
2022-10-01T03:50:02.249Z,12.75
2022-10-01T03:52:29.066Z,12.74
2022-10-01T03:54:55.830Z,12.74
2022-10-01T03:57:22.610Z,12.74
2022-10-01T03:59:49.350Z,12.74
2022-10-01T04:02:16.267Z,12.76
2022-10-01T04:04:43.090Z,12.78
2022-10-01T04:07:09.834Z,12.79
2022-10-01T04:09:37.620Z,12.81
2022-10-01T04:12:05.120Z,12.81
2022-10-01T04:14:31.866Z,12.81
2022-10-01T04:16:59.119Z,12.81
2022-10-01T04:19:25.850Z,12.80
2022-10-01T04:21:52.697Z,12.79
2022-10-01T04:24:19.424Z,12.80
2022-10-01T04:26:46.128Z,12.78
2022-10-01T04:29:12.930Z,12.77
2022-10-01T04:31:40.432Z,12.78
2022-10-01T04:34:07.319Z,12.77
2022-10-01T04:36:34.319Z,12.74
2022-10-01T04:39:02.732Z,12.73
2022-10-01T04:41:33.196Z,12.71
2022-10-01T04:44:00.869Z,12.73
2022-10-01T04:46:30.197Z,12.72
2022-10-01T04:48:57.338Z,12.72
2022-10-01T04:51:24.660Z,12.72
2022-10-01T04:53:51.528Z,12.70
2022-10-01T04:56:18.314Z,12.72
2022-10-01T04:58:45.109Z,12.73
2022-10-01T05:01:11.989Z,12.72
2022-10-01T05:03:38.773Z,12.71
2022-10-01T05:06:05.655Z,12.71
2022-10-01T05:08:32.434Z,12.70
2022-10-01T05:11:00.597Z,12.70
2022-10-01T05:13:30.163Z,12.69
2022-10-01T05:15:58.807Z,12.70
2022-10-01T05:18:26.037Z,12.72
2022-10-01T05:20:52.832Z,12.70
2022-10-01T05:23:19.546Z,12.71
2022-10-01T05:25:47.178Z,12.75
2022-10-01T05:28:18.450Z,12.75
2022-10-01T05:30:48.911Z,12.77
2022-10-01T05:33:15.738Z,12.76
2022-10-01T05:35:42.642Z,12.72
2022-10-01T05:38:09.468Z,12.75
2022-10-01T05:40:36.377Z,12.77
2022-10-01T05:43:04.376Z,12.78
2022-10-01T05:45:31.941Z,12.80
2022-10-01T05:48:04.293Z,12.82
2022-10-01T05:50:34.563Z,12.87
2022-10-01T05:53:02.595Z,12.92
2022-10-01T05:55:34.569Z,12.90
2022-10-01T05:58:04.592Z,12.94
2022-10-01T06:00:33.418Z,13.00
2022-10-01T06:03:02.766Z,13.03
2022-10-01T06:05:31.409Z,13.07
2022-10-01T06:07:59.400Z,13.10
2022-10-01T06:10:28.216Z,13.10
2022-10-01T06:13:02.302Z,13.14
2022-10-01T06:15:34.291Z,13.13
2022-10-01T06:18:06.132Z,13.16
2022-10-01T06:20:33.144Z,13.15
2022-10-01T06:23:00.145Z,13.14
2022-10-01T06:25:29.758Z,13.13
2022-10-01T06:27:58.914Z,13.14
2022-10-01T06:30:27.299Z,13.19
2022-10-01T06:32:59.675Z,13.21
2022-10-01T06:35:26.462Z,13.21
2022-10-01T06:37:53.184Z,13.25
2022-10-01T06:40:20.103Z,13.27
2022-10-01T06:42:48.285Z,13.30
2022-10-01T06:45:16.240Z,13.34
2022-10-01T06:47:43.036Z,13.34
2022-10-01T06:50:12.717Z,13.35
2022-10-01T06:52:51.650Z,13.37
2022-10-01T06:55:20.829Z,13.35
2022-10-01T06:57:48.220Z,13.37
2022-10-01T07:00:15.091Z,13.42
2022-10-01T07:02:41.930Z,13.44
2022-10-01T07:05:09.276Z,13.45
2022-10-01T07:07:37.801Z,13.44
2022-10-01T07:10:07.870Z,13.46
2022-10-01T07:12:38.412Z,13.51
2022-10-01T07:15:06.430Z,13.56
2022-10-01T07:17:33.781Z,13.61
2022-10-01T07:20:01.760Z,13.65
2022-10-01T07:22:28.572Z,13.67
2022-10-01T07:24:55.376Z,13.67
2022-10-01T07:27:22.162Z,13.65
2022-10-01T07:29:48.916Z,13.64
2022-10-01T07:32:15.843Z,13.67
2022-10-01T07:34:42.714Z,13.71
2022-10-01T07:37:10.061Z,13.73
2022-10-01T07:39:37.332Z,13.77
2022-10-01T07:42:04.387Z,13.76
2022-10-01T07:44:31.144Z,13.79
2022-10-01T07:46:58.191Z,13.83
2022-10-01T07:49:27.926Z,13.79
2022-10-01T07:51:55.861Z,13.89
2022-10-01T07:54:23.063Z,13.96
2022-10-01T07:56:52.904Z,13.99
2022-10-01T07:59:19.787Z,14.03
2022-10-01T08:01:51.869Z,14.07
2022-10-01T08:04:38.212Z,14.16
2022-10-01T08:07:06.091Z,14.29
2022-10-01T08:09:33.108Z,14.38
2022-10-01T08:12:00.163Z,14.46
2022-10-01T08:14:28.669Z,14.48
2022-10-01T08:16:56.525Z,14.47
2022-10-01T08:19:23.512Z,14.56
2022-10-01T08:21:50.399Z,14.60
2022-10-01T08:24:17.878Z,14.60
2022-10-01T08:26:44.714Z,14.69
2022-10-01T08:29:16.260Z,14.73
2022-10-01T08:31:43.816Z,14.74
2022-10-01T08:34:10.630Z,14.80
2022-10-01T08:36:37.910Z,14.86
2022-10-01T08:39:04.731Z,14.90
2022-10-01T08:41:43.796Z,14.88
2022-10-01T08:44:19.497Z,14.79
2022-10-01T08:46:46.572Z,14.79
2022-10-01T08:49:20.731Z,14.59
2022-10-01T08:52:10.880Z,14.67
2022-10-01T08:54:51.975Z,14.63
2022-10-01T08:57:23.735Z,14.68
2022-10-01T09:00:14.818Z,14.76
2022-10-01T09:02:43.590Z,14.91
2022-10-01T09:05:27.205Z,15.07
2022-10-01T09:08:18.965Z,15.19
2022-10-01T09:10:53.503Z,15.22
2022-10-01T09:13:22.960Z,15.36
2022-10-01T09:15:56.322Z,15.47
2022-10-01T09:18:51.044Z,15.52
2022-10-01T09:21:23.033Z,15.73
2022-10-01T09:24:15.286Z,15.84
2022-10-01T09:26:46.357Z,15.89
2022-10-01T09:29:23.941Z,15.93
2022-10-01T09:31:53.517Z,15.80
2022-10-01T09:34:35.177Z,15.92
2022-10-01T09:37:21.549Z,15.99
2022-10-01T09:40:21.475Z,16.17
2022-10-01T09:42:48.444Z,16.31
2022-10-01T09:45:17.050Z,16.53
2022-10-01T09:47:48.786Z,16.69
2022-10-01T09:50:20.301Z,16.80
2022-10-01T09:52:50.220Z,17.01
2022-10-01T09:55:44.181Z,17.33
2022-10-01T09:58:18.523Z,17.38
2022-10-01T10:00:45.800Z,17.42
2022-10-01T10:03:28.780Z,17.50
2022-10-01T10:05:57.091Z,17.89
2022-10-01T10:08:33.580Z,17.29
2022-10-01T10:11:03.379Z,17.02
2022-10-01T10:13:39.197Z,17.02
2022-10-01T10:16:28.813Z,16.90
2022-10-01T10:19:00.934Z,16.83
2022-10-01T10:21:31.587Z,16.69
2022-10-01T10:24:00.920Z,16.59
2022-10-01T10:26:38.485Z,16.82
2022-10-01T10:29:08.608Z,17.17
2022-10-01T10:31:38.512Z,17.49
2022-10-01T10:34:05.240Z,17.87
2022-10-01T10:36:38.471Z,17.70
2022-10-01T10:39:10.416Z,17.55
2022-10-01T10:41:37.858Z,17.48
2022-10-01T10:44:07.858Z,17.26
2022-10-01T10:46:38.187Z,17.36
2022-10-01T10:49:18.844Z,17.61
2022-10-01T10:51:53.866Z,18.04
2022-10-01T10:54:29.393Z,18.16
2022-10-01T10:57:05.372Z,18.19
2022-10-01T10:59:34.147Z,18.23
2022-10-01T11:02:03.737Z,18.30
2022-10-01T11:04:44.273Z,18.79
2022-10-01T11:07:13.506Z,20.06
2022-10-01T11:09:56.596Z,21.43
2022-10-01T11:12:56.523Z,21.07
2022-10-01T11:15:45.459Z,21.66
2022-10-01T11:18:44.265Z,21.47
2022-10-01T11:21:28.556Z,21.14
2022-10-01T11:27:10.403Z,20.37
2022-10-01T11:29:39.858Z,19.91
2022-10-01T11:32:09.921Z,19.73
2022-10-01T11:38:19.972Z,19.49
2022-10-01T11:40:54.321Z,19.28
2022-10-01T11:43:27.206Z,19.12
2022-10-01T11:46:01.026Z,20.00
2022-10-01T11:48:35.604Z,20.28
2022-10-01T11:51:09.349Z,20.37
2022-10-01T11:53:45.520Z,20.57
2022-10-01T11:56:38.012Z,21.07
2022-10-01T11:59:45.059Z,21.75
2022-10-01T12:02:40.726Z,22.74
2022-10-01T12:05:17.238Z,21.11
2022-10-01T12:07:53.941Z,20.83
2022-10-01T12:10:39.328Z,20.65
2022-10-01T12:13:22.745Z,20.86
2022-10-01T12:15:52.316Z,20.79
2022-10-01T12:18:26.365Z,20.67
2022-10-01T12:20:55.968Z,21.31
2022-10-01T12:23:28.627Z,20.41
2022-10-01T12:26:21.153Z,20.30
2022-10-01T12:29:12.510Z,20.14
2022-10-01T12:32:03.062Z,20.12
2022-10-01T12:34:54.207Z,19.98
2022-10-01T12:37:40.053Z,19.59
2022-10-01T12:40:26.603Z,19.51
2022-10-01T12:43:21.291Z,19.29
2022-10-01T12:45:54.321Z,19.29
2022-10-01T12:48:47.569Z,19.48
2022-10-01T12:51:35.583Z,19.50
2022-10-01T12:54:41.031Z,19.65
2022-10-01T12:57:33.071Z,19.52
2022-10-01T13:00:16.775Z,19.64
2022-10-01T13:02:46.669Z,19.64
2022-10-01T13:06:07.527Z,19.62
2022-10-01T13:08:52.513Z,19.67
2022-10-01T13:11:51.104Z,19.38
2022-10-01T13:14:19.265Z,19.23
2022-10-01T13:16:54.767Z,19.00
2022-10-01T13:19:55.679Z,19.02
2022-10-01T13:22:40.748Z,19.09
2022-10-01T13:25:26.197Z,19.30
2022-10-01T13:28:03.678Z,19.60
2022-10-01T13:30:45.137Z,19.80
2022-10-01T13:33:27.401Z,19.92
2022-10-01T13:35:57.542Z,19.70
2022-10-01T13:38:29.425Z,19.76
2022-10-01T13:41:05.040Z,19.66
2022-10-01T13:43:34.431Z,19.49
2022-10-01T13:46:10.518Z,19.46
2022-10-01T13:48:46.958Z,19.34
2022-10-01T13:51:15.340Z,19.09
2022-10-01T13:53:42.074Z,19.12
2022-10-01T13:56:14.490Z,19.04
2022-10-01T13:58:46.467Z,19.08
2022-10-01T14:01:20.019Z,19.00
2022-10-01T14:04:05.283Z,18.76
2022-10-01T14:06:35.257Z,18.75
2022-10-01T14:09:29.589Z,18.77
2022-10-01T14:12:22.011Z,18.60
2022-10-01T14:15:15.480Z,18.55
2022-10-01T14:17:44.748Z,18.26
2022-10-01T14:20:24.616Z,18.07
2022-10-01T14:23:15.400Z,17.89
2022-10-01T14:26:03.233Z,17.85
2022-10-01T14:28:35.760Z,17.75
2022-10-01T14:31:24.305Z,17.64
2022-10-01T14:34:17.714Z,17.74
2022-10-01T14:36:50.905Z,17.75
2022-10-01T14:39:29.229Z,17.52
2022-10-01T14:41:57.943Z,17.45
2022-10-01T14:44:31.658Z,17.36
2022-10-01T14:46:59.904Z,17.33
2022-10-01T14:49:27.968Z,17.13
2022-10-01T14:52:05.312Z,17.06
2022-10-01T14:54:44.763Z,16.93
2022-10-01T14:57:17.914Z,16.80
2022-10-01T14:59:48.335Z,16.79
2022-10-01T15:02:23.787Z,16.59
2022-10-01T15:04:53.240Z,16.54
2022-10-01T15:07:20.280Z,16.51
2022-10-01T15:09:51.261Z,16.38
2022-10-01T15:12:22.342Z,16.46
2022-10-01T15:14:53.824Z,16.53
2022-10-01T15:17:25.436Z,16.40
2022-10-01T15:19:59.212Z,16.39
2022-10-01T15:22:29.862Z,16.47
2022-10-01T15:25:01.595Z,16.41
2022-10-01T15:27:29.025Z,16.43
2022-10-01T15:29:58.874Z,16.34
2022-10-01T15:32:28.132Z,16.39
2022-10-01T15:34:59.816Z,16.29
2022-10-01T15:37:34.408Z,16.29
2022-10-01T15:40:06.151Z,16.13
2022-10-01T15:42:36.551Z,16.16
2022-10-01T15:45:09.524Z,16.15
2022-10-01T15:47:37.599Z,16.07
2022-10-01T15:50:10.403Z,15.99
2022-10-01T15:52:52.055Z,16.00
2022-10-01T15:55:27.562Z,16.00
2022-10-01T15:58:06.653Z,15.90
2022-10-01T16:00:44.854Z,15.83
2022-10-01T16:03:23.385Z,15.82
2022-10-01T16:05:54.923Z,15.86
2022-10-01T16:08:25.915Z,15.85
2022-10-01T16:11:08.088Z,15.78
2022-10-01T16:13:39.282Z,15.79
2022-10-01T16:16:10.757Z,15.76
2022-10-01T16:18:37.637Z,15.73
2022-10-01T16:21:06.203Z,15.70
2022-10-01T16:23:49.909Z,15.71
2022-10-01T16:26:29.034Z,15.65
2022-10-01T16:29:11.603Z,15.63
2022-10-01T16:31:44.617Z,15.55
2022-10-01T16:34:13.354Z,15.52
2022-10-01T16:36:40.564Z,15.44
2022-10-01T16:39:07.547Z,15.39
2022-10-01T16:41:35.949Z,15.37
2022-10-01T16:44:05.211Z,15.34
2022-10-01T16:46:33.478Z,15.27
2022-10-01T16:49:00.401Z,15.17
2022-10-01T16:51:33.237Z,15.21
2022-10-01T16:54:01.866Z,15.16
2022-10-01T16:56:28.659Z,15.13
2022-10-01T16:58:55.497Z,15.11
2022-10-01T17:01:22.309Z,15.13
2022-10-01T17:03:49.121Z,15.11
2022-10-01T17:06:15.999Z,15.09
2022-10-01T17:08:42.824Z,15.07
2022-10-01T17:11:12.813Z,15.04
2022-10-01T17:13:39.744Z,15.00
2022-10-01T17:16:06.813Z,14.95
2022-10-01T17:18:33.655Z,14.90
2022-10-01T17:21:03.566Z,14.90
2022-10-01T17:23:30.381Z,14.87
2022-10-01T17:25:57.154Z,14.82
2022-10-01T17:28:24.520Z,14.80
2022-10-01T17:30:51.374Z,14.69
2022-10-01T17:33:19.451Z,14.72
2022-10-01T17:35:51.729Z,14.65
2022-10-01T17:38:19.444Z,14.67
2022-10-01T17:40:46.775Z,14.64
2022-10-01T17:43:15.842Z,14.66
2022-10-01T17:45:43.630Z,14.50
2022-10-01T17:48:10.539Z,14.48
2022-10-01T17:50:43.448Z,14.47
2022-10-01T17:53:12.022Z,14.38
2022-10-01T17:55:42.545Z,14.38
2022-10-01T17:58:10.017Z,14.34
2022-10-01T18:00:37.161Z,14.34
2022-10-01T18:03:04.261Z,14.33
2022-10-01T18:05:31.186Z,14.33
2022-10-01T18:07:58.191Z,14.33
2022-10-01T18:10:25.005Z,14.33
2022-10-01T18:12:51.803Z,14.33
2022-10-01T18:15:20.874Z,14.28
2022-10-01T18:17:52.089Z,14.29
2022-10-01T18:20:23.206Z,14.28
2022-10-01T18:22:50.595Z,14.27
2022-10-01T18:25:19.425Z,14.27
2022-10-01T18:27:49.973Z,14.24
2022-10-01T18:30:17.413Z,14.22
2022-10-01T18:32:48.282Z,14.16
2022-10-01T18:35:28.129Z,14.13
2022-10-01T18:37:58.455Z,14.09
2022-10-01T18:40:29.113Z,14.09
2022-10-01T18:43:17.699Z,14.10
2022-10-01T18:46:12.655Z,14.06
2022-10-01T18:49:03.343Z,14.06
2022-10-01T18:51:52.151Z,14.08
2022-10-01T18:54:28.158Z,14.09
2022-10-01T18:57:00.961Z,14.07
2022-10-01T18:59:30.740Z,14.12
2022-10-01T19:02:26.395Z,14.10
2022-10-01T19:05:24.936Z,14.10
2022-10-01T19:08:17.396Z,14.08
2022-10-01T19:11:18.427Z,14.10
2022-10-01T19:13:53.908Z,14.08
2022-10-01T19:16:41.067Z,14.08
2022-10-01T19:19:35.343Z,14.05
2022-10-01T19:22:26.393Z,14.01
2022-10-01T19:24:59.871Z,13.98
2022-10-01T19:28:04.404Z,13.98
2022-10-01T19:30:46.606Z,13.99
2022-10-01T19:33:17.536Z,14.00
2022-10-01T19:35:50.081Z,13.99
2022-10-01T19:38:33.863Z,13.98
2022-10-01T19:41:15.828Z,13.94
2022-10-01T19:43:46.424Z,13.96
2022-10-01T19:46:15.274Z,13.91
2022-10-01T19:49:04.953Z,13.86
2022-10-01T19:51:43.738Z,13.85
2022-10-01T19:54:24.744Z,13.87
2022-10-01T19:56:54.752Z,13.77
2022-10-01T19:59:22.203Z,13.75
2022-10-01T20:02:01.379Z,13.76
2022-10-01T20:04:55.313Z,13.80
2022-10-01T20:07:36.330Z,13.77
2022-10-01T20:10:14.948Z,13.79
2022-10-01T20:12:59.804Z,13.74
2022-10-01T20:16:18.218Z,13.69
2022-10-01T20:19:03.315Z,13.72
2022-10-01T20:21:46.570Z,13.74
2022-10-01T20:24:19.172Z,13.79
2022-10-01T20:26:58.980Z,13.77
2022-10-01T20:29:50.782Z,13.66
2022-10-01T20:32:49.608Z,13.68
2022-10-01T20:35:25.037Z,13.63
2022-10-01T20:38:19.390Z,13.55
2022-10-01T20:40:52.393Z,13.64
2022-10-01T20:43:33.257Z,13.60
2022-10-01T20:46:08.754Z,13.61
2022-10-01T20:48:37.830Z,13.73
2022-10-01T20:51:10.235Z,13.68
2022-10-01T20:53:45.237Z,13.66
2022-10-01T20:56:30.966Z,13.60
2022-10-01T20:59:08.022Z,13.64
2022-10-01T21:01:40.180Z,13.66
2022-10-01T21:04:13.196Z,13.59
2022-10-01T21:06:47.576Z,13.52
2022-10-01T21:09:25.047Z,13.59
2022-10-01T21:12:02.229Z,13.85
2022-10-01T21:14:52.385Z,13.75
2022-10-01T21:17:33.342Z,13.74
2022-10-01T21:20:21.120Z,13.79
2022-10-01T21:23:09.468Z,13.66
2022-10-01T21:25:54.680Z,13.57
2022-10-01T21:28:43.332Z,13.57
2022-10-01T21:31:29.010Z,13.52
2022-10-01T21:34:13.659Z,13.36
2022-10-01T21:36:58.780Z,13.28
2022-10-01T21:39:52.173Z,13.15
2022-10-01T21:42:47.079Z,13.04
2022-10-01T21:45:25.215Z,12.90
2022-10-01T21:48:03.295Z,12.91
2022-10-01T21:50:51.551Z,12.86
2022-10-01T21:53:50.332Z,12.81
2022-10-01T21:56:37.479Z,12.71
2022-10-01T21:59:41.691Z,12.65
2022-10-01T22:02:36.966Z,12.58
2022-10-01T22:05:22.778Z,12.67
2022-10-01T22:08:14.570Z,12.62
2022-10-01T22:10:46.608Z,12.55
2022-10-01T22:13:21.494Z,12.62
2022-10-01T22:15:52.943Z,12.72
2022-10-01T22:18:28.240Z,12.71
2022-10-01T22:20:58.100Z,12.70
2022-10-01T22:23:27.214Z,12.67
2022-10-01T22:25:59.326Z,12.63
2022-10-01T22:28:36.980Z,12.63
2022-10-01T22:31:06.455Z,12.59
2022-10-01T22:33:46.946Z,12.59
2022-10-01T22:36:19.250Z,12.53
2022-10-01T22:38:54.167Z,12.43
2022-10-01T22:41:33.408Z,12.37
2022-10-01T22:44:04.859Z,12.26
2022-10-01T22:46:43.944Z,12.18
2022-10-01T22:49:41.613Z,12.11
2022-10-01T22:52:28.171Z,12.13
2022-10-01T22:55:32.290Z,12.13
2022-10-01T22:58:22.188Z,12.04
2022-10-01T23:01:12.807Z,12.04
2022-10-01T23:03:55.661Z,12.04
2022-10-01T23:06:41.314Z,11.93
2022-10-01T23:09:24.960Z,11.97
2022-10-01T23:12:04.735Z,12.06
2022-10-01T23:14:48.366Z,12.14
2022-10-01T23:18:08.969Z,12.15
2022-10-01T23:21:13.890Z,12.16
2022-10-01T23:23:45.654Z,12.03
2022-10-01T23:26:47.897Z,11.96
2022-10-01T23:29:25.201Z,12.00
2022-10-01T23:32:10.807Z,12.15
2022-10-01T23:34:59.858Z,12.14
2022-10-01T23:37:41.548Z,12.11
2022-10-01T23:40:13.274Z,12.05
2022-10-01T23:43:05.000Z,11.97
2022-10-01T23:45:57.283Z,11.87
2022-10-01T23:48:40.538Z,11.76
2022-10-01T23:51:22.891Z,11.73
2022-10-01T23:53:59.063Z,11.70
2022-10-01T23:56:50.715Z,11.67
2022-10-01T23:59:38.861Z,11.71
